• Join FlightAware (Why Join?)
  • Login
  • US Flag 
12:37PM EST


 

Airport Tracker/Info


-or-


 

Live Flight TrackerFlight Track Log ✈ FIN3126 ✈ 22-Jul-2014 ✈ EGLL / LHR - EFHK / HEL

Flight Track Log - Related Links

Times and Time Zones

All times are in EDT time to prevent confusion due to time zone crossing. See the FIN3126 flight status page for this flight to view local times or setup timezone preferences in your user account.

Time Position Orientation Groundspeed Altitude Reporting Facility
EDT Latitude Longitude Course Direction KTS MPH feet Rate Location/Type
02:57AM 51.7148 -0.0342 48° Northeast  Level Estimated
02:58AM 51.7935 0.1092 48° Northeast  Level Estimated
02:59AM 51.8721 0.2531 48° Northeast  Level Estimated
03:00AM 51.9505 0.3975 49° Northeast  Level Estimated
03:01AM 52.0287 0.5424 49° Northeast  Level Estimated
03:02AM 52.1025 0.6799 49° Northeast  Level Estimated
03:03AM 52.1761 0.8179 49° Northeast  Level Estimated
03:04AM 52.2496 0.9564 49° Northeast  Level Estimated
03:05AM 52.3230 1.0953 49° Northeast  Level Estimated
03:06AM 52.3961 1.2347 49° Northeast  Level Estimated
03:07AM 52.4691 1.3745 49° Northeast  Level Estimated
03:08AM 52.5420 1.5148 49° Northeast  Level Estimated
03:09AM 52.6147 1.6556 50° Northeast  Level Estimated
03:10AM 52.6872 1.7968 50° Northeast  Level Estimated
03:11AM 52.7595 1.9385 50° Northeast  Level Estimated
03:12AM 52.8317 2.0807 50° Northeast  Level Estimated
03:13AM 52.9037 2.2233 50° Northeast  Level Estimated
03:14AM 52.9755 2.3664 50° Northeast  Level Estimated
03:15AM 53.0472 2.5100 50° Northeast  Level Estimated
03:16AM 53.1186 2.6541 50° Northeast  Level Estimated
03:17AM 53.1899 2.7986 51° Northeast  Level Estimated
03:18AM 53.2611 2.9437 51° Northeast  Level Estimated
03:19AM 53.3320 3.0892 51° Northeast  Level Estimated
03:20AM 53.4028 3.2352 51° Northeast  Level Estimated
03:21AM 53.4796 3.3946 51° Northeast  Level Estimated
03:22AM 53.5562 3.5546 51° Northeast  Level Estimated
03:23AM 53.6326 3.7152 51° Northeast  Level Estimated
03:24AM 53.7088 3.8764 51° Northeast  Level Estimated
03:25AM 53.7848 4.0381 51° Northeast  Level Estimated
03:26AM 53.8605 4.2005 52° Northeast  Level Estimated
03:27AM 53.9360 4.3634 52° Northeast  Level Estimated
03:28AM 54.0113 4.5269 52° Northeast  Level Estimated
03:29AM 54.0864 4.6910 52° Northeast  Level Estimated
03:30AM 54.1613 4.8557 52° Northeast  Level Estimated
03:31AM 54.2359 5.0210 52° Northeast  Level Estimated
03:32AM 54.3103 5.1869 52° Northeast  Level Estimated
03:33AM 54.3845 5.3534 53° Northeast  Level Estimated
03:34AM 54.4584 5.5205 53° Northeast  Level Estimated
03:35AM 54.5321 5.6882 53° Northeast  Level Estimated
03:36AM 54.6056 5.8566 53° Northeast  Level Estimated
03:37AM 54.6788 6.0255 53° Northeast  Level Estimated
03:38AM 54.7518 6.1950 53° Northeast  Level Estimated
03:39AM 54.8246 6.3651 53° Northeast  Level Estimated
03:40AM 54.8971 6.5359 54° Northeast  Level Estimated
03:41AM 54.9694 6.7073 54° Northeast  Level Estimated
03:42AM 55.0415 6.8792 54° Northeast  Level Estimated
03:43AM 55.1133 7.0518 54° Northeast  Level Estimated
03:44AM 55.1848 7.2251 54° Northeast  Level Estimated
03:45AM 55.2562 7.3989 54° Northeast  Level Estimated
03:46AM 55.3272 7.5734 54° Northeast  Level Estimated
03:47AM 55.3980 7.7485 54° Northeast  Level Estimated
03:48AM 55.4686 7.9242 55° Northeast  Level Estimated
03:49AM 55.5389 8.1006 55° Northeast  Level Estimated
03:50AM 55.6090 8.2775 55° Northeast  Level Estimated
03:51AM 55.6788 8.4552 55° Northeast  Level Estimated
03:52AM 55.7483 8.6334 55° Northeast  Level Estimated
03:53AM 55.8176 8.8123 55° Northeast  Level Estimated
03:54AM 55.8867 8.9918 56° Northeast  Level Estimated
03:55AM 55.9554 9.1720 56° Northeast  Level Estimated
03:56AM 56.0239 9.3528 56° Northeast  Level Estimated
03:57AM 56.0922 9.5342 56° Northeast  Level Estimated
03:58AM 56.1601 9.7163 56° Northeast  Level Estimated
03:59AM 56.2278 9.8990 56° Northeast  Level Estimated
04:00AM 56.2953 10.0824 56° Northeast  Level Estimated
04:01AM 56.3624 10.2664 57° Northeast  Level Estimated
04:02AM 56.4293 10.4511 57° Northeast  Level Estimated
04:03AM 56.4959 10.6364 57° Northeast  Level Estimated
04:04AM 56.5623 10.8224 57° Northeast  Level Estimated
04:05AM 56.6283 11.0090 57° Northeast  Level Estimated
04:06AM 56.6941 11.1963 57° Northeast  Level Estimated
04:07AM 56.7596 11.3842 57° Northeast  Level Estimated
04:08AM 56.8248 11.5728 58° Northeast  Level Estimated
04:09AM 56.8897 11.7620 58° Northeast  Level Estimated
04:10AM 56.9543 11.9519 58° Northeast  Level Estimated
04:11AM 57.0187 12.1425 58° Northeast  Level Estimated
04:12AM 57.0828 12.3337 58° Northeast  Level Estimated
04:13AM 57.1465 12.5256 58° Northeast  Level Estimated
04:14AM 57.2100 12.7181 59° Northeast  Level Estimated
04:15AM 57.2732 12.9113 59° Northeast  Level Estimated
04:16AM 57.3360 13.1052 59° Northeast  Level Estimated
04:17AM 57.3986 13.2997 59° Northeast  Level Estimated
04:18AM 57.4609 13.4949 59° Northeast  Level Estimated
04:19AM 57.5229 13.6908 59° Northeast  Level Estimated
04:20AM 57.5846 13.8873 60° Northeast  Level Estimated
04:21AM 57.6459 14.0844 60° Northeast  Level Estimated
04:22AM 57.7070 14.2823 60° Northeast  Level Estimated
04:23AM 57.7677 14.4808 60° Northeast  Level Estimated
04:24AM 57.8282 14.6800 60° Northeast  Level Estimated
04:25AM 57.8883 14.8799 60° Northeast  Level Estimated
04:26AM 57.9481 15.0804 61° Northeast  Level Estimated
04:27AM 58.0076 15.2816 61° Northeast  Level Estimated
04:28AM 58.0668 15.4834 61° Northeast  Level Estimated
04:29AM 58.1256 15.6859 61° Northeast  Level Estimated
04:30AM 58.1842 15.8891 61° Northeast  Level Estimated
04:31AM 58.2424 16.0930 61° Northeast  Level Estimated
04:32AM 58.3002 16.2975 62° Northeast  Level Estimated
04:33AM 58.3578 16.5027 62° Northeast  Level Estimated
04:34AM 58.4146 16.7071 62° Northeast  Level Estimated
04:35AM 58.4711 16.9121 62° Northeast  Level Estimated
04:36AM 58.5272 17.1178 62° Northeast  Level Estimated
04:37AM 58.5831 17.3241 62° Northeast  Level Estimated
04:38AM 58.6386 17.5311 63° Northeast  Level Estimated
04:39AM 58.6937 17.7387 63° Northeast  Level Estimated
04:40AM 58.7486 17.9470 63° Northeast  Level Estimated
04:41AM 58.8030 18.1560 63° Northeast  Level Estimated
04:42AM 58.8572 18.3656 63° Northeast  Level Estimated
04:43AM 58.9110 18.5759 64° Northeast  Level Estimated
04:44AM 58.9645 18.7868 64° Northeast  Level Estimated
04:45AM 59.0176 18.9984 64° Northeast  Level Estimated
04:46AM 59.0704 19.2106 64° Northeast  Level Estimated
04:47AM 59.1228 19.4235 64° Northeast  Level Estimated
04:48AM 59.1749 19.6370 64° Northeast  Level Estimated
04:49AM 59.2266 19.8512 65° Northeast  Level Estimated
04:50AM 59.2780 20.0660 65° Northeast  Level Estimated
04:51AM 59.3290 20.2815 65° Northeast  Level Estimated
04:52AM 59.3797 20.4976 65° Northeast  Level Estimated
04:53AM 59.4300 20.7144 65° Northeast  Level Estimated
04:54AM 59.4795 20.9302 66° East  Level Estimated
04:55AM 59.5288 21.1467 66° East  Level Estimated
04:56AM 59.5776 21.3638 66° East  Level Estimated
04:57AM 59.6261 21.5815 66° East  Level Estimated
04:58AM 59.6743 21.7999 66° East  Level Estimated
04:59AM 59.7221 22.0188 67° East  Level Estimated
05:00AM 59.7695 22.2384 67° East  Level Estimated
05:01AM 59.8166 22.4587 67° East  Level Estimated
05:02AM 59.8632 22.6795 67° East  Level Estimated
05:03AM 59.9095 22.9010 67° East  Level Estimated
05:04AM 59.9555 23.1230 67° East  Level Estimated
05:05AM 60.0010 23.3457 68° East  Level Estimated
05:06AM 60.0462 23.5690 68° East  Level Estimated
05:07AM 60.0910 23.7929 68° East  Level Estimated
05:08AM 60.1355 24.0175 68° East  Level Estimated
05:09AM 60.1795 24.2426 68° East  Level Estimated
05:10AM 60.2232 24.4683 69° East  Level Estimated
05:11AM 60.2665 24.6947 69° East  Level Estimated
05:12AM 60.3094 24.9216 69° East  Level Estimated
05:13AM 60.3172 24.9633 69° East  Level Estimated
05:14AM 60.3172 24.9633 North  Level Estimated
05:15AM 60.3172 24.9633 North  Level Estimated
05:16AM 60.3172 24.9633 North  Level Estimated
05:17AM 60.3172 24.9633 North  Level Estimated
05:18AM 60.3172 24.9633 North  Level Estimated
05:19AM 60.3172 24.9633 North  Level Estimated
05:20AM 60.3172 24.9633 North  Level Estimated
05:21AM 60.3172 24.9633 North  Level Estimated
05:22AM 60.3172 24.9633 North  Level Estimated
05:23AM 60.3172 24.9633 North  Level Estimated
05:24AM 60.3172 24.9633 North  Level Estimated
05:25AM 60.3172 24.9633 North  Level Estimated
05:26AM 60.3172 24.9633 North  Level Estimated